Time;durP1;ratioP1;P1;durP2;ratioP2;P2;SDS_P1;SDS_P2;PMS_P1;PMS_P2;Temp;Humidity;BMP_temperature;BMP_pressure;BME280_temperature;BME280_humidity;BME280_pressure;Samples;Min_cycle;Max_cycle;Signal;HPM_P1;HPM_P2
2023/05/16 00:01:28;;;;;;;;;6.00;6.00;;;;;;;;4956209;28;46046;-79
2023/05/16 00:03:54;;;;;;;;;3.67;3.67;;;;;;;;4958923;28;45757;-77
2023/05/16 00:06:19;;;;;;;;;5.00;4.00;;;;;;;;4952851;28;45792;-78
2023/05/16 00:08:45;;;;;;;;;9.00;5.00;;;;;;;;4950700;28;45391;-79
2023/05/16 00:11:10;;;;;;;;;6.00;4.00;;;;;;;;4950022;28;45652;-80
2023/05/16 00:13:36;;;;;;;;;5.33;4.67;;;;;;;;4948639;28;46024;-79
2023/05/16 00:16:03;;;;;;;;;9.33;4.67;;;;;;;;4951599;28;46052;-79
2023/05/16 00:18:29;;;;;;;;;4.67;4.33;;;;;;;;4944762;28;46282;-79
2023/05/16 00:20:54;;;;;;;;;5.00;4.00;;;;;;;;4954028;28;45643;-79
2023/05/16 00:23:19;;;;;;;;;6.00;3.33;;;;;;;;4960723;28;45736;-79
2023/05/16 00:25:46;;;;;;;;;2.33;2.33;;;;;;;;4950861;28;45396;-78
2023/05/16 00:28:11;;;;;;;;;6.67;5.00;;;;;;;;4953690;28;45414;-79
2023/05/16 00:30:36;;;;;;;;;3.33;3.00;;;;;;;;4949702;28;45568;-77
2023/05/16 00:33:01;;;;;;;;;6.00;4.67;;;;;;;;4951581;28;45476;-78
2023/05/16 00:35:26;;;;;;;;;5.33;5.00;;;;;;;;4949429;28;45379;-77
2023/05/16 00:37:52;;;;;;;;;5.00;4.00;;;;;;;;4950319;28;45849;-78
2023/05/16 00:40:17;;;;;;;;;5.67;3.00;;;;;;;;4951546;28;46019;-78
2023/05/16 00:42:42;;;;;;;;;4.00;3.33;;;;;;;;4962205;28;45855;-78
2023/05/16 00:45:08;;;;;;;;;3.50;1.50;;;;;;;;4971899;28;45463;-78
2023/05/16 00:47:34;;;;;;;;;7.00;5.67;;;;;;;;4957010;28;45389;-78
2023/05/16 00:50:00;;;;;;;;;7.33;6.67;;;;;;;;4960978;28;46154;-77
2023/05/16 00:52:25;;;;;;;;;4.67;4.67;;;;;;;;4958362;28;45734;-77
2023/05/16 00:54:51;;;;;;;;;6.00;4.33;;;;;;;;4961780;28;45990;-77
2023/05/16 00:57:16;;;;;;;;;6.33;2.00;;;;;;;;4960410;28;45791;-78
2023/05/16 00:59:42;;;;;;;;;2.67;2.67;;;;;;;;4960602;28;46260;-78
2023/05/16 01:02:08;;;;;;;;;6.00;4.67;;;;;;;;4952700;28;45532;-78
2023/05/16 01:04:34;;;;;;;;;5.67;4.00;;;;;;;;4951887;28;45711;-78
2023/05/16 01:07:00;;;;;;;;;5.00;4.00;;;;;;;;4952147;28;45537;-78
2023/05/16 01:09:25;;;;;;;;;6.00;4.33;;;;;;;;4953491;28;45474;-78
2023/05/16 01:11:55;;;;;;;;;8.00;3.67;;;;;;;;4957554;28;45333;-80
2023/05/16 01:14:41;;;;;;;;;5.00;4.00;;;;;;;;4954932;28;45609;-78
2023/05/16 01:17:20;;;;;;;;;7.33;4.00;;;;;;;;4963440;28;46022;-79
2023/05/16 01:20:05;;;;;;;;;3.00;3.00;;;;;;;;4950751;28;46247;-79
2023/05/16 01:22:36;;;;;;;;;5.00;3.67;;;;;;;;4952100;28;45408;-78
2023/05/16 01:25:10;;;;;;;;;7.33;5.00;;;;;;;;4952376;28;45441;-78
2023/05/16 01:27:37;;;;;;;;;4.33;3.00;;;;;;;;4951949;28;45391;-77
2023/05/16 01:30:12;;;;;;;;;6.33;4.67;;;;;;;;4954811;28;46672;-78
2023/05/16 01:32:37;;;;;;;;;3.67;3.00;;;;;;;;4949392;28;45707;-77
2023/05/16 01:35:03;;;;;;;;;5.00;3.00;;;;;;;;4945274;28;45485;-77
2023/05/16 01:37:32;;;;;;;;;6.33;4.33;;;;;;;;4952353;28;45852;-78
2023/05/16 01:40:24;;;;;;;;;6.67;3.00;;;;;;;;4976369;28;47077;-78
2023/05/16 01:42:52;;;;;;;;;7.00;4.33;;;;;;;;4930556;28;45794;-77
2023/05/16 01:45:27;;;;;;;;;6.33;3.33;;;;;;;;4952055;28;45698;-78
2023/05/16 01:48:00;;;;;;;;;6.00;6.00;;;;;;;;4951730;28;45793;-77
2023/05/16 01:50:28;;;;;;;;;6.00;3.00;;;;;;;;4962328;28;46365;-77
2023/05/16 01:53:08;;;;;;;;;6.00;4.33;;;;;;;;4939061;28;45346;-79
2023/05/16 01:55:33;;;;;;;;;4.67;3.00;;;;;;;;4952669;28;45397;-79
2023/05/16 01:57:58;;;;;;;;;2.33;2.33;;;;;;;;4953043;28;45583;-79
2023/05/16 02:00:23;;;;;;;;;5.00;4.67;;;;;;;;4952532;28;46997;-77
2023/05/16 02:02:48;;;;;;;;;4.00;3.00;;;;;;;;4951363;28;45448;-78
2023/05/16 02:05:14;;;;;;;;;7.33;4.00;;;;;;;;4952433;28;45764;-78
2023/05/16 02:07:40;;;;;;;;;4.33;4.00;;;;;;;;4951658;28;45850;-77
2023/05/16 02:10:06;;;;;;;;;4.00;4.00;;;;;;;;4946912;28;45690;-77
2023/05/16 02:12:31;;;;;;;;;9.00;5.00;;;;;;;;4959708;28;45614;-76
2023/05/16 02:14:56;;;;;;;;;3.00;3.00;;;;;;;;4954164;28;45409;-77
2023/05/16 02:17:22;;;;;;;;;3.00;3.00;;;;;;;;4953591;28;45537;-77
2023/05/16 02:19:47;;;;;;;;;4.67;3.00;;;;;;;;4940749;28;45420;-77
2023/05/16 02:22:12;;;;;;;;;6.67;5.33;;;;;;;;4952159;28;45986;-77
2023/05/16 02:24:37;;;;;;;;;5.00;3.00;;;;;;;;4940960;28;45361;-78
2023/05/16 02:27:03;;;;;;;;;3.00;3.00;;;;;;;;4956438;28;45691;-78
2023/05/16 02:29:28;;;;;;;;;3.67;3.67;;;;;;;;4957040;28;47056;-78
2023/05/16 02:31:53;;;;;;;;;3.33;3.00;;;;;;;;4941299;28;45859;-77
2023/05/16 02:34:19;;;;;;;;;5.00;3.00;;;;;;;;4952685;28;45754;-77
2023/05/16 02:36:44;;;;;;;;;4.00;3.00;;;;;;;;4952850;28;45914;-78
2023/05/16 02:39:10;;;;;;;;;3.00;3.00;;;;;;;;4952777;28;47072;-78
2023/05/16 02:41:35;;;;;;;;;5.00;3.33;;;;;;;;4946576;28;45896;-78
2023/05/16 02:44:01;;;;;;;;;6.00;4.00;;;;;;;;4944062;28;45967;-76
2023/05/16 02:46:30;;;;;;;;;5.67;4.67;;;;;;;;4948950;28;46013;-79
2023/05/16 02:48:55;;;;;;;;;9.67;3.67;;;;;;;;4951116;28;46334;-78
2023/05/16 02:51:22;;;;;;;;;4.33;4.00;;;;;;;;4962734;28;45462;-78
2023/05/16 02:53:47;;;;;;;;;4.00;3.00;;;;;;;;4964148;28;45773;-80
2023/05/16 02:56:13;;;;;;;;;2.33;2.00;;;;;;;;4952604;28;45718;-78
2023/05/16 02:58:38;;;;;;;;;4.33;4.00;;;;;;;;4949919;28;46972;-79
2023/05/16 03:01:03;;;;;;;;;5.33;4.67;;;;;;;;4950726;28;45629;-79
2023/05/16 03:03:29;;;;;;;;;4.67;3.33;;;;;;;;4950996;28;45792;-77
2023/05/16 03:05:54;;;;;;;;;6.33;3.00;;;;;;;;4956181;28;45967;-77
2023/05/16 03:08:19;;;;;;;;;7.33;5.00;;;;;;;;4949536;28;45829;-76
2023/05/16 03:10:45;;;;;;;;;4.00;3.67;;;;;;;;4940628;28;45718;-77
2023/05/16 03:13:10;;;;;;;;;6.00;4.33;;;;;;;;4947792;28;45906;-76
2023/05/16 03:15:36;;;;;;;;;4.00;2.67;;;;;;;;4948533;28;46704;-78
2023/05/16 03:18:02;;;;;;;;;3.00;3.00;;;;;;;;4950190;28;46523;-76
2023/05/16 03:20:27;;;;;;;;;2.00;2.00;;;;;;;;4955753;28;45449;-77
2023/05/16 03:22:53;;;;;;;;;5.00;3.33;;;;;;;;4950995;28;46018;-80
2023/05/16 03:25:18;;;;;;;;;3.00;2.00;;;;;;;;4957886;28;45636;-78
2023/05/16 03:27:44;;;;;;;;;3.00;3.00;;;;;;;;4952265;28;46594;-77
2023/05/16 03:30:09;;;;;;;;;5.67;2.67;;;;;;;;4949230;28;45564;-78
2023/05/16 03:32:35;;;;;;;;;2.33;2.33;;;;;;;;4945817;28;45643;-76
2023/05/16 03:35:00;;;;;;;;;4.33;4.33;;;;;;;;4949849;28;45490;-78
2023/05/16 03:37:25;;;;;;;;;5.00;2.33;;;;;;;;4949982;28;46165;-78
2023/05/16 03:39:51;;;;;;;;;3.00;3.00;;;;;;;;4950853;28;46046;-77
2023/05/16 03:42:17;;;;;;;;;5.67;3.00;;;;;;;;4947942;28;45697;-76
2023/05/16 03:44:42;;;;;;;;;3.00;3.00;;;;;;;;4951936;28;45755;-79
2023/05/16 03:47:08;;;;;;;;;3.00;3.00;;;;;;;;4950372;28;45674;-78
2023/05/16 03:49:33;;;;;;;;;4.67;3.00;;;;;;;;4954773;28;45757;-77
2023/05/16 03:51:58;;;;;;;;;4.00;3.00;;;;;;;;4957329;28;45910;-77
2023/05/16 03:54:23;;;;;;;;;7.67;4.00;;;;;;;;4950729;28;45385;-78
2023/05/16 03:56:49;;;;;;;;;8.33;3.67;;;;;;;;4950294;28;47175;-79
2023/05/16 03:59:14;;;;;;;;;4.33;2.00;;;;;;;;4949716;28;45425;-79
2023/05/16 04:01:40;;;;;;;;;3.33;2.33;;;;;;;;4951745;28;45379;-78
2023/05/16 04:04:05;;;;;;;;;4.00;2.00;;;;;;;;4949393;28;45778;-78
2023/05/16 04:06:31;;;;;;;;;4.33;3.67;;;;;;;;4949642;28;47231;-77
2023/05/16 04:08:56;;;;;;;;;8.67;4.00;;;;;;;;4948242;28;45506;-77
2023/05/16 04:11:21;;;;;;;;;2.67;2.67;;;;;;;;4947090;28;45366;-77
2023/05/16 04:13:47;;;;;;;;;3.00;3.00;;;;;;;;4945435;28;46032;-77
2023/05/16 04:16:12;;;;;;;;;8.33;3.00;;;;;;;;4947593;28;46467;-77
2023/05/16 04:18:37;;;;;;;;;7.00;4.00;;;;;;;;4952517;28;45877;-76
2023/05/16 04:21:03;;;;;;;;;5.67;4.00;;;;;;;;4952113;28;45616;-78
2023/05/16 04:23:28;;;;;;;;;5.67;4.00;;;;;;;;4954130;28;45878;-79
2023/05/16 04:25:55;;;;;;;;;7.33;6.00;;;;;;;;4949359;28;45621;-79
2023/05/16 04:28:21;;;;;;;;;3.00;3.00;;;;;;;;4960732;28;45719;-77
2023/05/16 04:30:46;;;;;;;;;8.33;5.67;;;;;;;;4953488;28;45928;-78
2023/05/16 04:33:11;;;;;;;;;6.67;4.00;;;;;;;;4954427;28;45829;-72
2023/05/16 04:35:37;;;;;;;;;2.00;2.00;;;;;;;;4942090;28;46805;-74
2023/05/16 04:38:03;;;;;;;;;3.67;2.00;;;;;;;;4952615;28;45698;-73
2023/05/16 04:40:28;;;;;;;;;5.00;4.00;;;;;;;;4952627;28;45861;-73
2023/05/16 04:42:54;;;;;;;;;6.67;6.67;;;;;;;;4955848;28;45932;-72
2023/05/16 04:45:19;;;;;;;;;9.00;4.00;;;;;;;;4949253;28;45792;-73
2023/05/16 04:47:45;;;;;;;;;3.00;3.00;;;;;;;;4953156;28;45806;-72
2023/05/16 04:50:10;;;;;;;;;2.00;2.00;;;;;;;;4958547;28;45468;-76
2023/05/16 04:52:37;;;;;;;;;5.33;4.33;;;;;;;;4952375;28;45897;-73
2023/05/16 04:55:02;;;;;;;;;4.33;4.00;;;;;;;;4953958;28;46278;-76
2023/05/16 04:57:27;;;;;;;;;9.00;4.00;;;;;;;;4954246;28;45391;-73
2023/05/16 04:59:53;;;;;;;;;2.33;2.00;;;;;;;;4953834;28;45543;-73
2023/05/16 05:02:18;;;;;;;;;0.00;0.00;;;;;;;;4952443;28;45932;-73
2023/05/16 05:04:43;;;;;;;;;2.67;2.67;;;;;;;;4953204;28;46429;-73
2023/05/16 05:07:09;;;;;;;;;4.33;3.00;;;;;;;;4953438;28;45780;-74
2023/05/16 05:09:34;;;;;;;;;4.00;3.00;;;;;;;;4951516;28;45413;-73
2023/05/16 05:11:59;;;;;;;;;2.67;2.00;;;;;;;;4943556;28;45635;-74
2023/05/16 05:14:25;;;;;;;;;4.33;2.00;;;;;;;;4953965;28;45712;-73
2023/05/16 05:16:50;;;;;;;;;3.67;2.33;;;;;;;;4953454;28;45666;-72
2023/05/16 05:19:15;;;;;;;;;5.00;4.00;;;;;;;;4947116;28;45711;-77
2023/05/16 05:21:41;;;;;;;;;5.33;2.33;;;;;;;;4953437;28;46009;-78
2023/05/16 05:24:06;;;;;;;;;3.50;2.75;;;;;;;;4951401;28;46253;-77
2023/05/16 05:26:31;;;;;;;;;4.00;2.75;;;;;;;;4950656;28;45642;-76
2023/05/16 05:28:56;;;;;;;;;3.75;1.00;;;;;;;;4953969;28;45491;-77
2023/05/16 05:31:22;;;;;;;;;3.75;2.00;;;;;;;;4948329;28;45495;-79
2023/05/16 05:33:47;;;;;;;;;3.75;3.00;;;;;;;;4961069;28;46261;-80
2023/05/16 05:36:12;;;;;;;;;2.00;2.00;;;;;;;;4945914;28;45408;-80
2023/05/16 05:38:38;;;;;;;;;4.00;4.00;;;;;;;;4953306;28;45366;-84
2023/05/16 05:41:03;;;;;;;;;3.75;1.75;;;;;;;;4956911;28;45476;-84
2023/05/16 05:43:29;;;;;;;;;2.50;2.50;;;;;;;;4962196;28;45519;-81
2023/05/16 05:45:54;;;;;;;;;3.00;2.00;;;;;;;;4952686;28;45726;-82
2023/05/16 05:48:20;;;;;;;;;2.25;1.25;;;;;;;;4951930;28;45797;-82
2023/05/16 05:50:45;;;;;;;;;5.25;2.00;;;;;;;;4966511;28;45795;-80
2023/05/16 05:53:10;;;;;;;;;1.00;1.00;;;;;;;;4954223;28;45899;-80
2023/05/16 05:55:36;;;;;;;;;2.00;2.00;;;;;;;;4946000;28;45432;-80
2023/05/16 05:58:01;;;;;;;;;3.00;1.50;;;;;;;;4954276;28;45425;-79
2023/05/16 06:00:27;;;;;;;;;1.75;0.50;;;;;;;;4953729;28;45425;-80
2023/05/16 06:02:52;;;;;;;;;2.50;1.75;;;;;;;;4951761;28;45785;-80
2023/05/16 06:05:17;;;;;;;;;2.00;2.00;;;;;;;;4952644;28;45596;-79
2023/05/16 06:07:43;;;;;;;;;2.25;1.25;;;;;;;;4952895;28;46082;-80
2023/05/16 06:10:08;;;;;;;;;2.50;1.50;;;;;;;;4953373;28;45754;-80
2023/05/16 06:12:33;;;;;;;;;1.25;1.25;;;;;;;;4945663;28;45746;-80
2023/05/16 06:14:59;;;;;;;;;2.00;2.00;;;;;;;;4946335;28;45742;-79
2023/05/16 06:17:29;;;;;;;;;4.25;3.25;;;;;;;;4937257;28;45362;-81
2023/05/16 06:19:54;;;;;;;;;2.00;2.00;;;;;;;;4953278;28;45370;-79
2023/05/16 06:22:20;;;;;;;;;1.00;1.00;;;;;;;;4950393;28;46228;-78
2023/05/16 06:24:45;;;;;;;;;2.25;1.75;;;;;;;;4953867;28;45525;-80
2023/05/16 06:27:10;;;;;;;;;2.25;0.50;;;;;;;;4962105;28;45778;-80
2023/05/16 06:29:35;;;;;;;;;1.25;0.75;;;;;;;;4953860;28;45486;-81
2023/05/16 06:32:01;;;;;;;;;1.50;0.25;;;;;;;;4952116;28;45911;-80
2023/05/16 06:34:29;;;;;;;;;1.75;1.75;;;;;;;;4951029;28;45649;-80
2023/05/16 06:36:55;;;;;;;;;2.50;1.00;;;;;;;;4952991;28;45307;-80
2023/05/16 06:39:20;;;;;;;;;1.75;1.50;;;;;;;;4950575;28;45969;-78
2023/05/16 06:41:45;;;;;;;;;2.00;2.00;;;;;;;;4949263;28;45550;-78
2023/05/16 06:44:10;;;;;;;;;1.00;1.00;;;;;;;;4952420;28;45545;-81
2023/05/16 06:46:43;;;;;;;;;0.00;0.00;;;;;;;;4955133;28;45387;-84
2023/05/16 06:49:09;;;;;;;;;1.00;1.00;;;;;;;;4943397;28;45389;-80
2023/05/16 06:51:34;;;;;;;;;2.00;1.25;;;;;;;;4961915;28;47112;-80
2023/05/16 06:54:00;;;;;;;;;2.50;2.50;;;;;;;;4953258;28;45865;-80
2023/05/16 06:56:28;;;;;;;;;1.00;1.00;;;;;;;;4960784;28;45388;-84
2023/05/16 06:58:53;;;;;;;;;2.25;1.00;;;;;;;;4941309;28;45523;-82
2023/05/16 07:01:21;;;;;;;;;0.25;0.25;;;;;;;;4946455;28;46260;-82
2023/05/16 07:03:47;;;;;;;;;1.50;1.50;;;;;;;;4948346;28;45823;-79
2023/05/16 07:06:12;;;;;;;;;2.00;0.50;;;;;;;;4947041;28;45591;-81
2023/05/16 07:08:37;;;;;;;;;0.00;0.00;;;;;;;;4948578;28;46301;-81
2023/05/16 07:11:02;;;;;;;;;1.00;1.00;;;;;;;;4956637;28;46122;-80
2023/05/16 07:13:28;;;;;;;;;1.75;1.00;;;;;;;;4952157;28;45737;-82
2023/05/16 07:15:53;;;;;;;;;3.50;2.00;;;;;;;;4953165;28;45749;-81
2023/05/16 07:18:18;;;;;;;;;3.00;1.00;;;;;;;;4952294;28;45581;-81
2023/05/16 07:20:44;;;;;;;;;1.00;1.00;;;;;;;;4951936;28;45840;-82
2023/05/16 07:23:10;;;;;;;;;3.00;0.80;;;;;;;;4951721;28;45494;-80
2023/05/16 07:25:35;;;;;;;;;1.25;1.00;;;;;;;;4952586;28;45710;-81
2023/05/16 07:28:01;;;;;;;;;1.50;1.00;;;;;;;;4952732;28;45757;-82
2023/05/16 07:30:26;;;;;;;;;4.50;1.75;;;;;;;;4955971;28;45975;-80
2023/05/16 07:32:51;;;;;;;;;4.50;1.00;;;;;;;;4959612;28;45585;-81
2023/05/16 07:35:17;;;;;;;;;3.75;1.25;;;;;;;;4945771;28;45427;-80
2023/05/16 07:37:42;;;;;;;;;5.00;1.00;;;;;;;;4946408;28;45538;-80
2023/05/16 07:40:08;;;;;;;;;0.50;0.50;;;;;;;;4950744;28;46384;-80
2023/05/16 07:42:33;;;;;;;;;1.50;1.00;;;;;;;;4954237;28;45828;-79
2023/05/16 07:44:58;;;;;;;;;1.00;1.00;;;;;;;;4950565;28;45487;-81
2023/05/16 07:47:24;;;;;;;;;2.00;1.00;;;;;;;;4950799;28;45936;-81
2023/05/16 07:49:49;;;;;;;;;1.75;0.25;;;;;;;;4963275;28;46035;-79
2023/05/16 07:52:15;;;;;;;;;2.00;1.00;;;;;;;;4962198;28;45425;-80
2023/05/16 07:54:40;;;;;;;;;1.00;1.00;;;;;;;;4956656;28;45493;-81
2023/05/16 07:57:06;;;;;;;;;1.75;0.00;;;;;;;;4955721;28;45597;-81
2023/05/16 07:59:31;;;;;;;;;1.00;1.00;;;;;;;;4954384;28;46898;-79
2023/05/16 08:01:57;;;;;;;;;3.00;1.25;;;;;;;;4940699;28;45864;-80
2023/05/16 08:04:22;;;;;;;;;2.50;1.00;;;;;;;;4953655;28;45715;-80
2023/05/16 08:06:47;;;;;;;;;2.75;1.00;;;;;;;;4947808;28;45594;-81
2023/05/16 08:09:12;;;;;;;;;2.50;1.75;;;;;;;;4953314;28;45924;-82
2023/05/16 08:11:38;;;;;;;;;3.50;1.50;;;;;;;;4954285;28;45918;-82
2023/05/16 08:14:04;;;;;;;;;1.25;1.25;;;;;;;;4948252;28;45573;-81
2023/05/16 08:16:30;;;;;;;;;0.50;0.50;;;;;;;;4951564;28;45583;-80
2023/05/16 08:18:55;;;;;;;;;2.00;1.00;;;;;;;;4953446;28;47063;-82
2023/05/16 08:21:20;;;;;;;;;0.00;0.00;;;;;;;;4951517;28;45538;-81
2023/05/16 08:23:45;;;;;;;;;0.00;0.00;;;;;;;;4953105;28;45415;-81
2023/05/16 08:26:11;;;;;;;;;1.00;1.00;;;;;;;;4955114;28;45714;-80
2023/05/16 08:28:36;;;;;;;;;2.00;1.00;;;;;;;;4954988;28;46811;-81
2023/05/16 08:31:02;;;;;;;;;1.00;0.00;;;;;;;;4947080;28;45300;-81
2023/05/16 08:33:27;;;;;;;;;12.75;8.75;;;;;;;;4954275;28;45694;-82
2023/05/16 08:35:52;;;;;;;;;8.75;7.00;;;;;;;;4954757;28;45407;-80
2023/05/16 08:38:18;;;;;;;;;2.25;2.00;;;;;;;;4952591;28;46592;-80
2023/05/16 08:40:43;;;;;;;;;2.00;2.00;;;;;;;;4953469;28;45412;-80
2023/05/16 08:43:09;;;;;;;;;4.00;2.00;;;;;;;;4955540;28;45957;-79
2023/05/16 08:45:34;;;;;;;;;1.25;1.25;;;;;;;;4955007;28;45552;-81
2023/05/16 08:48:00;;;;;;;;;1.00;0.00;;;;;;;;4953051;28;45796;-82
2023/05/16 08:50:29;;;;;;;;;4.25;2.00;;;;;;;;4956166;28;46131;-83
2023/05/16 08:52:55;;;;;;;;;1.00;1.00;;;;;;;;4950358;28;45830;-82
2023/05/16 08:55:21;;;;;;;;;3.00;3.00;;;;;;;;4957096;28;45762;-82
2023/05/16 08:57:48;;;;;;;;;1.40;1.00;;;;;;;;4962155;28;46668;-82
2023/05/16 09:00:13;;;;;;;;;0.40;0.40;;;;;;;;4952737;28;45841;-81
2023/05/16 09:02:43;;;;;;;;;2.25;1.25;;;;;;;;4954359;28;46023;-81
2023/05/16 09:05:10;;;;;;;;;1.25;0.25;;;;;;;;4954026;28;45858;-79
2023/05/16 09:07:36;;;;;;;;;0.60;0.00;;;;;;;;4951270;28;47234;-82
2023/05/16 09:10:01;;;;;;;;;0.00;0.00;;;;;;;;4956398;28;45777;-83
2023/05/16 09:12:26;;;;;;;;;1.00;0.00;;;;;;;;4960661;28;45668;-82
2023/05/16 09:14:52;;;;;;;;;1.25;0.00;;;;;;;;4954145;28;45543;-81
2023/05/16 09:17:17;;;;;;;;;7.50;7.50;;;;;;;;4955020;28;46080;-81
2023/05/16 09:19:43;;;;;;;;;4.50;1.00;;;;;;;;4951774;28;45881;-81
2023/05/16 09:22:15;;;;;;;;;2.00;0.75;;;;;;;;4958601;28;45728;-81
2023/05/16 09:24:44;;;;;;;;;0.00;0.00;;;;;;;;4955372;28;45810;-80
2023/05/16 09:27:09;;;;;;;;;0.75;0.00;;;;;;;;4964535;28;47196;-81
2023/05/16 09:29:35;;;;;;;;;1.00;1.00;;;;;;;;4959087;28;45882;-80
2023/05/16 09:32:04;;;;;;;;;0.00;0.00;;;;;;;;4947844;28;45492;-81
2023/05/16 09:34:29;;;;;;;;;2.00;1.00;;;;;;;;4954040;28;46127;-80
2023/05/16 09:36:54;;;;;;;;;2.25;1.00;;;;;;;;4957157;28;46645;-81
2023/05/16 09:39:19;;;;;;;;;2.00;0.25;;;;;;;;4957074;28;45693;-80
2023/05/16 09:41:45;;;;;;;;;0.00;0.00;;;;;;;;4951163;28;46036;-82
2023/05/16 09:44:10;;;;;;;;;1.50;0.00;;;;;;;;4955673;28;45675;-82
2023/05/16 09:46:37;;;;;;;;;0.00;0.00;;;;;;;;4950154;28;46475;-83
2023/05/16 09:49:02;;;;;;;;;1.25;0.00;;;;;;;;4956026;28;45434;-82
2023/05/16 09:51:27;;;;;;;;;0.00;0.00;;;;;;;;4962326;28;45320;-83
2023/05/16 09:53:53;;;;;;;;;0.00;0.00;;;;;;;;4952639;28;47313;-80
2023/05/16 09:56:18;;;;;;;;;2.00;0.00;;;;;;;;4947269;28;47060;-81
2023/05/16 09:58:44;;;;;;;;;3.75;3.75;;;;;;;;4954232;28;45784;-81
2023/05/16 10:01:10;;;;;;;;;0.00;0.00;;;;;;;;4943576;28;45575;-82
2023/05/16 10:03:36;;;;;;;;;1.00;0.00;;;;;;;;4953392;28;45951;-82
2023/05/16 10:06:02;;;;;;;;;0.00;0.00;;;;;;;;4955149;28;45799;-81
2023/05/16 10:08:30;;;;;;;;;2.60;0.20;;;;;;;;4951332;28;45918;-81
2023/05/16 10:10:55;;;;;;;;;1.25;1.25;;;;;;;;4953013;28;45485;-83
2023/05/16 10:13:27;;;;;;;;;0.00;0.00;;;;;;;;4953124;28;45484;-81
2023/05/16 10:15:54;;;;;;;;;2.00;0.25;;;;;;;;4950955;28;47230;-82
2023/05/16 10:18:21;;;;;;;;;2.80;0.20;;;;;;;;4960065;28;45757;-81
2023/05/16 10:20:48;;;;;;;;;0.00;0.00;;;;;;;;4943666;28;45746;-85
2023/05/16 10:23:18;;;;;;;;;2.00;0.00;;;;;;;;4962847;28;45460;-83
2023/05/16 10:25:44;;;;;;;;;0.25;0.00;;;;;;;;4948788;28;46168;-82
2023/05/16 10:28:10;;;;;;;;;0.40;0.20;;;;;;;;4953594;28;45567;-82
2023/05/16 10:30:39;;;;;;;;;0.75;0.75;;;;;;;;4954645;28;45428;-84
2023/05/16 10:33:05;;;;;;;;;1.75;0.00;;;;;;;;4944108;28;45921;-82
2023/05/16 10:35:31;;;;;;;;;0.00;0.00;;;;;;;;4951295;28;45688;-82
2023/05/16 10:37:57;;;;;;;;;0.25;0.25;;;;;;;;4952210;28;45951;-82
2023/05/16 10:40:23;;;;;;;;;2.00;0.00;;;;;;;;4944760;28;45918;-80
2023/05/16 10:43:02;;;;;;;;;0.75;0.75;;;;;;;;4949772;28;45754;-79
2023/05/16 10:45:28;;;;;;;;;1.00;1.00;;;;;;;;4950957;28;45903;-78
2023/05/16 10:47:54;;;;;;;;;0.00;0.00;;;;;;;;4941497;28;45650;-81
2023/05/16 10:50:41;;;;;;;;;1.75;0.00;;;;;;;;4945851;28;45857;-81
2023/05/16 10:53:20;;;;;;;;;0.00;0.00;;;;;;;;4946655;28;45807;-80
2023/05/16 10:55:58;;;;;;;;;2.25;0.00;;;;;;;;4949528;28;45433;-79
2023/05/16 10:58:24;;;;;;;;;1.75;1.00;;;;;;;;4949756;28;45890;-77
2023/05/16 11:01:10;;;;;;;;;1.50;0.50;;;;;;;;4944608;28;45465;-81
2023/05/16 11:03:37;;;;;;;;;0.50;0.00;;;;;;;;4956180;28;45803;-78
2023/05/16 11:06:03;;;;;;;;;0.75;0.00;;;;;;;;4950575;28;45938;-78
2023/05/16 11:08:28;;;;;;;;;0.00;0.00;;;;;;;;4945815;28;45987;-75
2023/05/16 11:11:12;;;;;;;;;1.00;0.50;;;;;;;;4951556;28;45940;-84
2023/05/16 11:13:52;;;;;;;;;0.00;0.00;;;;;;;;4947185;28;45932;-73
2023/05/16 11:16:27;;;;;;;;;0.00;0.00;;;;;;;;4943858;28;46265;-73
2023/05/16 11:18:52;;;;;;;;;1.50;0.00;;;;;;;;4947793;28;45566;-75
2023/05/16 11:21:17;;;;;;;;;1.00;1.00;;;;;;;;4940227;28;45866;-73
2023/05/16 11:23:43;;;;;;;;;0.00;0.00;;;;;;;;4947106;28;45709;-75
2023/05/16 11:26:08;;;;;;;;;1.00;1.00;;;;;;;;4948407;28;47015;-74
2023/05/16 11:28:33;;;;;;;;;1.25;0.00;;;;;;;;4947337;28;45739;-73
2023/05/16 11:30:59;;;;;;;;;1.00;0.00;;;;;;;;4949468;28;45695;-73
2023/05/16 11:33:26;;;;;;;;;0.00;0.00;;;;;;;;4957415;28;45571;-74
2023/05/16 11:36:05;;;;;;;;;17.33;11.00;;;;;;;;4951351;28;46082;-74
2023/05/16 11:38:31;;;;;;;;;2.00;2.00;;;;;;;;4947813;28;45672;-72
2023/05/16 11:41:05;;;;;;;;;0.00;0.00;;;;;;;;4948890;28;45963;-74
2023/05/16 11:43:40;;;;;;;;;0.00;0.00;;;;;;;;4943819;28;45700;-74
2023/05/16 11:46:06;;;;;;;;;2.00;1.00;;;;;;;;4948482;28;47060;-74
2023/05/16 11:48:32;;;;;;;;;0.25;0.00;;;;;;;;4949102;28;45776;-74
2023/05/16 11:50:57;;;;;;;;;1.00;1.00;;;;;;;;4950028;28;45806;-74
2023/05/16 11:53:27;;;;;;;;;0.00;0.00;;;;;;;;4949505;28;45516;-79
2023/05/16 11:55:58;;;;;;;;;0.50;0.50;;;;;;;;4948374;28;46768;-81
2023/05/16 11:58:24;;;;;;;;;1.00;1.00;;;;;;;;4947681;28;45801;-76
2023/05/16 12:00:50;;;;;;;;;1.25;0.75;;;;;;;;4930802;28;45721;-75
2023/05/16 12:03:16;;;;;;;;;3.00;1.50;;;;;;;;4933803;28;45942;-75
2023/05/16 12:05:55;;;;;;;;;0.00;0.00;;;;;;;;4950522;28;46937;-76
2023/05/16 12:08:21;;;;;;;;;1.00;0.50;;;;;;;;4950065;28;45692;-76
2023/05/16 12:10:50;;;;;;;;;0.00;0.00;;;;;;;;4951858;28;45535;-76
2023/05/16 12:13:16;;;;;;;;;3.75;0.00;;;;;;;;4949876;28;46661;-77
2023/05/16 12:15:42;;;;;;;;;0.75;0.00;;;;;;;;4949659;28;45651;-75
2023/05/16 12:18:08;;;;;;;;;1.00;1.00;;;;;;;;4947759;28;45509;-76
2023/05/16 12:20:33;;;;;;;;;3.00;1.67;;;;;;;;4940788;28;45824;-77
2023/05/16 12:22:58;;;;;;;;;0.75;0.75;;;;;;;;4945077;28;45682;-76
2023/05/16 12:25:28;;;;;;;;;0.00;0.00;;;;;;;;4940614;28;45850;-76
2023/05/16 12:27:54;;;;;;;;;0.33;0.33;;;;;;;;4951012;28;45410;-76
2023/05/16 12:30:23;;;;;;;;;0.50;0.50;;;;;;;;4947094;28;45848;-77
2023/05/16 12:33:09;;;;;;;;;0.00;0.00;;;;;;;;4945774;28;45771;-76
2023/05/16 12:35:36;;;;;;;;;0.00;0.00;;;;;;;;4946743;28;45744;-77
2023/05/16 12:38:09;;;;;;;;;2.00;1.00;;;;;;;;4953835;28;45468;-76
2023/05/16 12:40:39;;;;;;;;;1.00;1.00;;;;;;;;4954332;28;45632;-77
2023/05/16 12:43:13;;;;;;;;;0.00;0.00;;;;;;;;4953914;28;46387;-77
2023/05/16 12:45:38;;;;;;;;;4.33;1.00;;;;;;;;4959854;28;46588;-77
2023/05/16 12:48:05;;;;;;;;;0.50;0.00;;;;;;;;4953385;28;45337;-76
2023/05/16 12:50:32;;;;;;;;;1.00;0.00;;;;;;;;4953327;28;45825;-77
2023/05/16 12:52:57;;;;;;;;;1.00;1.00;;;;;;;;4951900;28;45463;-77
2023/05/16 12:55:34;;;;;;;;;19.00;15.67;;;;;;;;4944892;28;46846;-77
2023/05/16 12:57:59;;;;;;;;;0.00;0.00;;;;;;;;4954150;28;45832;-76
2023/05/16 13:00:25;;;;;;;;;1.00;1.00;;;;;;;;4952078;28;45415;-75
2023/05/16 13:02:50;;;;;;;;;2.00;1.00;;;;;;;;4952056;28;46184;-75
2023/05/16 13:05:16;;;;;;;;;2.00;0.67;;;;;;;;4952372;28;46148;-76
2023/05/16 13:07:42;;;;;;;;;0.00;0.00;;;;;;;;4954268;28;45551;-76
2023/05/16 13:10:09;;;;;;;;;0.00;0.00;;;;;;;;4954097;28;46021;-77
2023/05/16 13:12:35;;;;;;;;;1.00;1.00;;;;;;;;4952373;28;45928;-77
2023/05/16 13:15:00;;;;;;;;;0.00;0.00;;;;;;;;4954027;28;45792;-77
2023/05/16 13:17:25;;;;;;;;;1.00;1.00;;;;;;;;4953534;28;45583;-77
2023/05/16 13:19:51;;;;;;;;;4.00;1.67;;;;;;;;4950141;28;45361;-78
2023/05/16 13:22:16;;;;;;;;;0.75;0.75;;;;;;;;4955018;28;45915;-78
2023/05/16 13:24:41;;;;;;;;;0.75;0.75;;;;;;;;4951764;28;47455;-76
2023/05/16 13:27:06;;;;;;;;;1.67;0.67;;;;;;;;4952264;28;45761;-77
2023/05/16 13:29:32;;;;;;;;;0.00;0.00;;;;;;;;4950748;28;45861;-76
2023/05/16 13:31:57;;;;;;;;;0.00;0.00;;;;;;;;4939335;28;45774;-77
2023/05/16 13:34:22;;;;;;;;;0.00;0.00;;;;;;;;4949571;28;46436;-78
2023/05/16 13:36:48;;;;;;;;;1.00;1.00;;;;;;;;4951191;28;45445;-76
2023/05/16 13:39:13;;;;;;;;;0.00;0.00;;;;;;;;4951771;28;45801;-75
2023/05/16 13:41:41;;;;;;;;;2.67;1.00;;;;;;;;4952104;28;45856;-77
2023/05/16 13:44:06;;;;;;;;;0.50;0.50;;;;;;;;4953557;28;45950;-76
2023/05/16 13:46:31;;;;;;;;;1.75;0.50;;;;;;;;4952621;28;45794;-75
2023/05/16 13:48:56;;;;;;;;;2.50;2.00;;;;;;;;4959087;28;45804;-77
2023/05/16 13:51:22;;;;;;;;;1.00;1.00;;;;;;;;4953981;28;46160;-78
2023/05/16 13:53:47;;;;;;;;;1.00;1.00;;;;;;;;4953839;28;46410;-76
2023/05/16 13:56:12;;;;;;;;;3.00;2.00;;;;;;;;4953270;28;45511;-76
2023/05/16 13:58:38;;;;;;;;;1.50;1.50;;;;;;;;4957115;28;45393;-76
2023/05/16 14:01:03;;;;;;;;;1.00;1.00;;;;;;;;4945813;28;45586;-76
2023/05/16 14:03:28;;;;;;;;;1.00;1.00;;;;;;;;4950108;28;46733;-75
2023/05/16 14:05:53;;;;;;;;;0.33;0.00;;;;;;;;4950731;28;45758;-77
2023/05/16 14:08:19;;;;;;;;;1.00;1.00;;;;;;;;4961133;28;45750;-76
2023/05/16 14:10:44;;;;;;;;;2.00;1.00;;;;;;;;4950495;28;45782;-77
2023/05/16 14:13:09;;;;;;;;;0.00;0.00;;;;;;;;4952867;28;46492;-77
2023/05/16 14:15:35;;;;;;;;;2.00;1.00;;;;;;;;4952883;28;45376;-76
2023/05/16 14:18:00;;;;;;;;;1.00;1.00;;;;;;;;4951138;28;45806;-76
2023/05/16 14:20:25;;;;;;;;;1.00;1.00;;;;;;;;4949251;28;45888;-77
2023/05/16 14:22:51;;;;;;;;;2.67;1.33;;;;;;;;4952006;28;46415;-77
2023/05/16 14:25:16;;;;;;;;;4.00;1.00;;;;;;;;4951930;28;45728;-74
2023/05/16 14:27:41;;;;;;;;;0.33;0.33;;;;;;;;4946255;28;45823;-73
2023/05/16 14:30:08;;;;;;;;;1.00;1.00;;;;;;;;4948442;28;46288;-74
2023/05/16 14:32:33;;;;;;;;;1.00;1.00;;;;;;;;4942188;28;46392;-74
2023/05/16 14:34:58;;;;;;;;;2.00;1.00;;;;;;;;4940620;28;45608;-75
2023/05/16 14:37:23;;;;;;;;;0.50;0.50;;;;;;;;4950604;28;45515;-74
2023/05/16 14:39:49;;;;;;;;;1.75;0.75;;;;;;;;4951784;28;45471;-74